• Join FlightAware (Why Join?)
  • Login
  • US Flag 
11:01AM EDT


 

Airport Tracker/Info


-or-


 

Live Flight TrackerFlight Track Log ✈ AAY846 ✈ 17-May-2014 ✈ KPIE - KPIA

Flight Track Log - Related Links

Times and Time Zones

All times are in EDT time to prevent confusion due to time zone crossing. See the AAY846 flight status page for this flight to view local times or setup timezone preferences in your user account.

Time Position Orientation Groundspeed Altitude Reporting Facility
EDT Latitude Longitude Course Direction KTS MPH feet Rate Location/Type
07:25AM 27.9242 -82.6911 North 152 175 600  Level Miami Center
07:26AM 27.9631 -82.6853 North 164 189 2,300 1,680 Climbing Miami Center
07:27AM 28.0192 -82.6583 23° Northeast 218 251 4,100 2,280 Climbing Miami Center
07:34AM 28.5958 -82.7844 350° North 384 442 19,100 2,340 Climbing FlightAware ADS-B (KMCO)
07:34AM 28.6726 -82.7992 351° North 394 453 20,400 1,620 Climbing FlightAware ADS-B (KMCO)
07:35AM 28.7761 -82.8192 351° North 378 435 22,100 1,560 Climbing Jacksonville Center
07:36AM 28.8844 -82.8547 344° North 390 449 23,800 1,500 Climbing Jacksonville Center
07:37AM 28.9806 -82.9164 331° Northwest 395 455 25,200 1,500 Climbing Jacksonville Center
07:38AM 29.0828 -82.9806 331° Northwest 408 470 26,800 1,260 Climbing Jacksonville Center
07:39AM 29.1872 -83.0472 331° Northwest 420 483 27,800 1,080 Climbing Jacksonville Center
07:40AM 29.2914 -83.1139 331° Northwest 425 489 29,000 1,140 Climbing Jacksonville Center
07:41AM 29.3997 -83.1833 331° Northwest 430 495 30,100 1,140 Climbing Jacksonville Center
07:42AM 29.5144 -83.2506 333° Northwest 440 506 31,300 780 Climbing Jacksonville Center
07:48AM 30.2077 -83.5832 337° Northwest 435 501 36,000 660 Climbing FlightAware ADS-B (KTLH)
07:49AM 30.2954 -83.6264 337° Northwest 434 499 36,000  Level FlightAware ADS-B (KTLH)
07:50AM 30.3938 -83.6749 337° Northwest 433 498 36,000  Level FlightAware ADS-B (KTLH)
07:51AM 30.4496 -83.7025 337° Northwest 432 497 36,000  Level FlightAware ADS-B (KTLH)
07:51AM 30.5120 -83.7334 337° Northwest 432 497 36,000  Level FlightAware ADS-B (KTLH)
07:52AM 30.5685 -83.7615 337° Northwest 433 498 36,000  Level FlightAware ADS-B (KTLH)
07:52AM 30.6314 -83.7926 337° Northwest 434 499 36,000  Level FlightAware ADS-B (KTLH)
07:53AM 30.7493 -83.8510 337° Northwest 433 498 36,000  Level FlightAware ADS-B (KTLH)
07:56AM 30.9799 -83.9657 337° Northwest 429 494 36,000  Level FlightAware ADS-B (KTLH)
07:56AM 31.0697 -84.0131 337° Northwest 435 501 36,000  Level Jacksonville Center
07:57AM 31.1819 -84.0703 336° Northwest 435 501 36,000  Level Jacksonville Center
08:00AM 31.4272 -84.1947 337° Northwest 423 487 36,000  Level Atlanta Center
08:01AM 31.5378 -84.2483 338° Northwest 423 487 36,000  Level Atlanta Center
08:02AM 31.6461 -84.3047 336° Northwest 423 487 36,000  Level Atlanta Center
08:03AM 31.7544 -84.3589 337° Northwest 423 487 36,000  Level Atlanta Center
08:04AM 31.8733 -84.4181 337° Northwest 418 481 36,000  Level Atlanta Center
08:05AM 31.9817 -84.4747 336° Northwest 418 481 36,000  Level Atlanta Center
08:06AM 32.0881 -84.5317 336° Northwest 418 481 36,000  Level Atlanta Center
08:07AM 32.1964 -84.5839 338° Northwest 418 481 36,000  Level Atlanta Center
08:08AM 32.3025 -84.6408 336° Northwest 418 481 36,000  Level Atlanta Center
08:09AM 32.4106 -84.6983 336° Northwest 423 487 36,000  Level Atlanta Center
08:10AM 32.5169 -84.7508 337° Northwest 423 487 36,000  Level Atlanta Center
08:11AM 32.6272 -84.8083 336° Northwest 423 487 36,000  Level Atlanta Center
08:12AM 32.7228 -84.8561 337° Northwest 418 481 36,000  Level Atlanta Center
08:13AM 32.8269 -84.9089 337° Northwest 418 481 36,000  Level Atlanta Center
08:14AM 32.9369 -84.9644 337° Northwest 418 481 36,000  Level Atlanta Center
08:15AM 33.0411 -85.0178 337° Northwest 418 481 36,000  Level Atlanta Center
08:16AM 33.1511 -85.0758 336° Northwest 418 481 36,000  Level Atlanta Center
08:17AM 33.2572 -85.1319 336° Northwest 418 481 36,000  Level Atlanta Center
08:18AM 33.3611 -85.1878 336° Northwest 418 481 36,000  Level Atlanta Center
08:19AM 33.4650 -85.2417 337° Northwest 412 474 36,000  Level Atlanta Center
08:24AM 34.0849 -85.5770 336° Northwest 416 479 36,000  Level FlightAware ADS-B (KMDQ)
08:25AM 34.1524 -85.6133 336° Northwest 416 479 36,000  Level FlightAware ADS-B (KMDQ)
08:26AM 34.2298 -85.6552 336° Northwest 415 478 36,000  Level FlightAware ADS-B (KMDQ)
08:26AM 34.2996 -85.6931 336° Northwest 416 479 36,000  Level FlightAware ADS-B (KMDQ)
08:27AM 34.3681 -85.7303 336° Northwest 417 480 36,000  Level FlightAware ADS-B (KMDQ)
08:28AM 34.4386 -85.7688 336° Northwest 420 483 36,000  Level FlightAware ADS-B (KMDQ)
08:28AM 34.5075 -85.8062 336° Northwest 422 486 36,000  Level FlightAware ADS-B (KMDQ)
08:29AM 34.5619 -85.8358 336° Northwest 422 486 36,000  Level FlightAware ADS-B (KMDQ)
08:31AM 34.7634 -85.9460 336° Northwest 422 486 36,000  Level FlightAware ADS-B (KMDQ)
08:31AM 34.8334 -85.9846 336° Northwest 423 487 36,000  Level FlightAware ADS-B (KMDQ)
08:32AM 34.9046 -86.0238 336° Northwest 422 486 36,000  Level FlightAware ADS-B (KMDQ)
08:33AM 34.9775 -86.0640 336° Northwest 424 488 36,000  Level FlightAware ADS-B (KMDQ)
08:33AM 35.0443 -86.1010 336° Northwest 425 489 36,000  Level FlightAware ADS-B (KMDQ)
08:34AM 35.1200 -86.1427 336° Northwest 414 476 36,000  Level FlightAware ADS-B (KMDQ)
08:35AM 35.1847 -86.1787 336° Northwest 409 471 36,000  Level FlightAware ADS-B (KMDQ)
08:35AM 35.2580 -86.2191 336° Northwest 397 457 36,000  Level FlightAware ADS-B (KMDQ)
08:36AM 35.3237 -86.2557 335° Northwest 390 449 36,000  Level FlightAware ADS-B (KMDQ)
08:37AM 35.3880 -86.2915 336° Northwest 386 444 36,000  Level FlightAware ADS-B (KMDQ)
08:37AM 35.4544 -86.3283 335° Northwest 381 438 36,000  Level FlightAware ADS-B (KMDQ)
08:38AM 35.5164 -86.3633 335° Northwest 359 413 36,000  Level FlightAware ADS-B (KMDQ)
08:39AM 35.5758 -86.3970 335° Northwest 355 409 36,000  Level FlightAware ADS-B (KMDQ)
08:39AM 35.6361 -86.4310 335° Northwest 359 413 36,000  Level FlightAware ADS-B (KMDQ)
08:40AM 35.6966 -86.4651 335° Northwest 358 412 36,000  Level FlightAware ADS-B (KMDQ)
08:41AM 35.7463 -86.4930 335° Northwest 358 412 36,000  Level FlightAware ADS-B (KMDQ)
08:41AM 35.8134 -86.5306 335° Northwest 358 412 36,000  Level FlightAware ADS-B (KMDQ)
08:42AM 35.8766 -86.5663 335° Northwest 358 412 36,000  Level FlightAware ADS-B (KMDQ)
08:43AM 35.9376 -86.6010 336° Northwest 359 413 36,000  Level FlightAware ADS-B (KMDQ)
08:43AM 35.9970 -86.6346 335° Northwest 358 412 36,000  Level FlightAware ADS-B (KMDQ)
08:44AM 36.0562 -86.6683 335° Northwest 360 414 36,000  Level FlightAware ADS-B (KMDQ)
08:45AM 36.1163 -86.7026 335° Northwest 363 418 36,000  Level FlightAware ADS-B (KMDQ)
08:45AM 36.1797 -86.7389 335° Northwest 365 420 36,000  Level FlightAware ADS-B (KMDQ)
08:46AM 36.2406 -86.7736 335° Northwest 368 423 36,000  Level FlightAware ADS-B (KMDQ)
08:47AM 36.2992 -86.8070 335° Northwest 373 429 36,000  Level FlightAware ADS-B (KMDQ)
08:47AM 36.3673 -86.8461 335° Northwest 371 427 36,000  Level FlightAware ADS-B (KMDQ)
08:48AM 36.4254 -86.8795 335° Northwest 384 442 36,000  Level FlightAware ADS-B (KMDQ)
08:49AM 36.4922 -86.9178 335° Northwest 387 445 36,000  Level FlightAware ADS-B (KMDQ)
08:50AM 36.6136 -86.9872 335° Northwest 387 445 36,000  Level Memphis Center
08:51AM 36.7128 -87.0456 335° Northwest 387 445 36,000  Level Memphis Center
08:52AM 36.8131 -87.1033 335° Northwest 388 447 36,000  Level Memphis Center
08:53AM 36.9144 -87.1631 335° Northwest 394 453 36,000  Level Memphis Center
08:54AM 37.0158 -87.2222 335° Northwest 397 457 36,000  Level Memphis Center
08:55AM 37.1203 -87.2839 335° Northwest 405 466 36,000  Level Memphis Center
08:56AM 37.2253 -87.3447 335° Northwest 409 471 36,000  Level Memphis Center
08:57AM 37.3483 -87.4161 335° Northwest 410 472 36,000  Level Memphis Center
08:58AM 37.4525 -87.4789 334° Northwest 411 473 36,000  Level Memphis Center
08:59AM 37.5564 -87.5406 335° Northwest 410 472 36,000  Level Memphis Center
09:00AM 37.6614 -87.6028 335° Northwest 410 472 36,000  Level Memphis Center
09:01AM 37.7633 -87.6711 332° Northwest 410 472 36,000  Level Indianapolis Center
09:02AM 37.8619 -87.7361 333° Northwest 410 472 36,000  Level Indianapolis Center
09:04AM 37.9847 -87.8181 332° Northwest 410 472 36,000  Level Indianapolis Center
09:05AM 38.0861 -87.8864 332° Northwest 410 472 36,000  Level Indianapolis Center
09:06AM 38.1878 -87.9536 333° Northwest 410 472 36,000  Level Indianapolis Center
09:07AM 38.2897 -88.0239 332° Northwest 410 472 36,000  Level Indianapolis Center
09:08AM 38.3914 -88.0925 332° Northwest 410 472 36,000  Level Indianapolis Center
09:09AM 38.4722 -88.1494 331° Northwest 410 472 36,000  Level Kansas City Center
09:10AM 38.5747 -88.2186 332° Northwest 411 473 36,000 -240 Level Kansas City Center
09:11AM 38.6758 -88.2886 332° Northwest 411 473 35,500 -780 Descending Kansas City Center
09:12AM 38.7772 -88.3567 332° Northwest 411 473 34,500 -1,080 Descending Kansas City Center
09:13AM 38.8986 -88.4411 332° Northwest 411 473 33,400 -1,020 Descending Kansas City Center
09:14AM 38.9997 -88.5114 332° Northwest 411 473 32,400 -1,020 Descending Kansas City Center
09:15AM 39.1025 -88.5808 332° Northwest 411 473 31,400 -960 Descending Kansas City Center
09:16AM 39.1939 -88.6436 332° Northwest 411 473 30,500 -900 Descending Kansas City Center
09:17AM 39.2919 -88.7139 331° Northwest 411 473 29,600 -960 Descending Kansas City Center
09:18AM 39.3903 -88.7817 332° Northwest 405 466 28,600 -1,500 Descending Kansas City Center
09:19AM 39.5008 -88.8589 332° Northwest 406 467 26,600 -2,160 Descending Kansas City Center
09:20AM 39.5936 -88.9247 331° Northwest 389 448 24,200 -2,280 Descending Kansas City Center
09:21AM 39.6836 -88.9878 332° Northwest 373 429 21,900 -2,220 Descending Kansas City Center
09:22AM 39.7711 -89.0511 331° Northwest 365 420 19,800 -2,100 Descending Kansas City Center
09:23AM 39.8569 -89.1100 332° Northwest 354 407 17,700 -2,040 Descending Kansas City Center
09:24AM 39.9400 -89.1708 331° Northwest 345 397 15,700 -1,980 Descending Kansas City Center
09:25AM 40.0219 -89.2278 332° Northwest 338 389 13,700 -2,220 Descending Kansas City Center
09:26AM 40.1200 -89.2922 333° Northwest 334 384 11,300 -1,620 Descending Kansas City Center
09:27AM 40.1950 -89.3381 335° Northwest 310 357 10,500 -1,140 Descending Kansas City Center
09:28AM 40.2608 -89.3800 334° Northwest 274 315 9,100 -1,560 Descending Kansas City Center
09:29AM 40.3267 -89.4197 335° Northwest 264 304 7,400 -1,680 Descending Kansas City Center
09:30AM 40.3917 -89.4597 335° Northwest 263 303 5,700 -1,380 Descending Kansas City Center
09:31AM 40.4542 -89.4986 335° Northwest 257 296 4,600 -960 Descending Kansas City Center
09:32AM 40.5042 -89.5300 334° Northwest 226 260 3,800 -840 Descending Kansas City Center
09:33AM 40.5492 -89.5583 334° Northwest 198 228 2,900 -600 Descending Kansas City Center
09:34AM 40.5925 -89.5853 335° Northwest 183 211 2,600 -540 Descending Kansas City Center
09:35AM 40.6200 -89.6192 317° Northwest 153 176 1,900 -780 Descending Kansas City Center
09:36AM 40.6453 -89.6633 307° West 134 154 1,100 -660 Descending Kansas City Center
09:37AM 40.6644 -89.6972 307° West 133 153 600 -240 Descending Kansas City Center
09:38AM 40.6661 -89.6956 37° Northeast 2 2 600  Level Chicago Center
09:39AM 40.6650 -89.6894 103° East 14 16 600  Level Chicago Center